Time;durP1;ratioP1;P1;durP2;ratioP2;P2;SDS_P1;SDS_P2;PMS_P1;PMS_P2;Temp;Humidity;BMP_temperature;BMP_pressure;BME280_temperature;BME280_humidity;BME280_pressure;Samples;Min_cycle;Max_cycle;Signal;HPM_P1;HPM_P2
2021/07/01 00:00:47;;;;;;;3.67;2.30;;;;;;;12.50;100.00;96788.47;5045957;28;20041;-67
2021/07/01 00:03:13;;;;;;;4.80;2.53;;;;;;;12.52;100.00;96786.91;5049461;28;20087;-65
2021/07/01 00:05:38;;;;;;;3.50;2.10;;;;;;;12.60;99.45;96785.81;5004915;28;20128;-66
2021/07/01 00:08:04;;;;;;;3.67;2.03;;;;;;;12.67;98.45;96784.31;5038652;28;20132;-65
2021/07/01 00:10:30;;;;;;;3.78;1.80;;;;;;;12.58;99.09;96777.16;5043141;28;20069;-65
2021/07/01 00:12:57;;;;;;;3.47;2.10;;;;;;;12.68;98.96;96783.94;5043171;28;20087;-65
2021/07/01 00:15:27;;;;;;;2.45;1.65;;;;;;;12.72;98.44;96783.97;5040857;28;20056;-65
2021/07/01 00:17:53;;;;;;;3.00;1.80;;;;;;;12.46;99.76;96790.38;5050166;28;20041;-65
2021/07/01 00:20:20;;;;;;;3.15;1.73;;;;;;;12.63;99.80;96784.25;5045442;28;20068;-66
2021/07/01 00:22:46;;;;;;;3.30;1.90;;;;;;;12.71;98.75;96779.63;5045330;28;20194;-66
2021/07/01 00:25:14;;;;;;;3.00;1.65;;;;;;;12.60;99.90;96785.00;5036816;28;20041;-66
2021/07/01 00:27:39;;;;;;;4.45;2.15;;;;;;;12.65;100.00;96776.44;5044242;28;20525;-65
2021/07/01 00:30:07;;;;;;;3.58;1.92;;;;;;;12.62;100.00;96778.00;5037651;28;20037;-65
2021/07/01 00:32:33;;;;;;;4.07;1.85;;;;;;;12.61;99.74;96773.66;5042640;28;20072;-65
2021/07/01 00:34:58;;;;;;;3.20;1.73;;;;;;;12.60;99.99;96782.25;5042212;28;20760;-65
2021/07/01 00:37:24;;;;;;;2.90;1.75;;;;;;;12.68;99.99;96777.66;5037632;28;20048;-66
2021/07/01 00:39:49;;;;;;;3.40;1.95;;;;;;;12.71;99.35;96774.94;5041391;28;20509;-65
2021/07/01 00:42:14;;;;;;;3.08;1.83;;;;;;;12.71;98.76;96771.38;5037022;28;20048;-64
2021/07/01 00:44:40;;;;;;;4.13;2.08;;;;;;;12.64;97.66;96774.88;5040736;28;20048;-65
2021/07/01 00:47:06;;;;;;;2.58;1.60;;;;;;;12.63;98.18;96776.03;5036093;28;20044;-65
2021/07/01 00:49:31;;;;;;;3.65;1.50;;;;;;;12.56;98.85;96773.22;5040539;28;20060;-63
2021/07/01 00:51:56;;;;;;;3.55;1.98;;;;;;;12.57;99.00;96772.84;5024935;28;20094;-65
2021/07/01 00:54:22;;;;;;;3.05;2.05;;;;;;;12.58;98.72;96770.88;5036827;28;20060;-64
2021/07/01 00:56:48;;;;;;;3.00;2.00;;;;;;;12.56;99.39;96778.69;5033029;28;20084;-66
2021/07/01 00:59:14;;;;;;;3.85;2.15;;;;;;;12.76;98.82;96782.03;5026869;28;20045;-65
2021/07/01 01:01:40;;;;;;;3.83;2.08;;;;;;;12.73;98.89;96772.59;5041013;28;20044;-64
2021/07/01 01:04:06;;;;;;;3.78;1.80;;;;;;;12.59;98.15;96773.25;5028084;28;20462;-66
2021/07/01 01:06:32;;;;;;;2.30;1.50;;;;;;;12.62;98.91;96771.69;5022560;28;20073;-64
2021/07/01 01:08:58;;;;;;;4.53;1.80;;;;;;;12.65;98.89;96765.44;5022231;28;20136;-65
2021/07/01 01:11:27;;;;;;;6.20;2.13;;;;;;;12.82;98.44;96772.28;5015722;28;20056;-64
2021/07/01 01:13:54;;;;;;;6.13;2.08;;;;;;;12.95;97.96;96765.31;5021511;28;20042;-63
2021/07/01 01:16:20;;;;;;;3.58;1.92;;;;;;;12.97;97.73;96767.69;5016787;28;20537;-64
2021/07/01 01:18:46;;;;;;;3.65;1.95;;;;;;;12.99;97.22;96765.34;5022826;28;20049;-66
2021/07/01 01:21:14;;;;;;;5.38;1.90;;;;;;;12.93;97.22;96778.66;5017141;28;20516;-66
2021/07/01 01:23:39;;;;;;;4.18;2.22;;;;;;;12.88;98.69;96772.72;5021553;28;20045;-66
2021/07/01 01:26:05;;;;;;;3.78;2.08;;;;;;;12.88;99.50;96775.47;5016765;28;20557;-63
2021/07/01 01:28:30;;;;;;;4.18;1.73;;;;;;;12.81;98.50;96770.69;5033021;28;20537;-65
2021/07/01 01:30:56;;;;;;;4.55;2.25;;;;;;;12.93;98.37;96777.88;5022723;28;20489;-64
2021/07/01 01:33:22;;;;;;;5.13;1.90;;;;;;;12.85;98.71;96773.47;5016397;28;20636;-65
2021/07/01 01:35:48;;;;;;;2.88;1.90;;;;;;;12.96;98.91;96774.34;5021429;28;20123;-64
2021/07/01 01:38:16;;;;;;;3.03;1.73;;;;;;;13.05;98.67;96777.56;5016644;28;20081;-64
2021/07/01 01:40:47;;;;;;;2.85;1.95;;;;;;;13.12;97.82;96777.59;5021814;28;20132;-65
2021/07/01 01:43:13;;;;;;;2.80;1.80;;;;;;;13.15;97.69;96778.81;4998761;28;20045;-64
2021/07/01 01:45:40;;;;;;;4.00;1.98;;;;;;;12.98;97.34;96778.31;5021016;28;20037;-65
2021/07/01 01:48:06;;;;;;;4.47;2.05;;;;;;;12.87;98.03;96784.88;5017394;28;20042;-64
2021/07/01 01:50:32;;;;;;;3.83;1.88;;;;;;;12.94;98.71;96779.44;5022851;28;20060;-65
2021/07/01 01:52:58;;;;;;;3.25;1.90;;;;;;;12.95;98.13;96778.28;5027175;28;20148;-65
2021/07/01 01:55:23;;;;;;;3.20;1.80;;;;;;;13.04;97.07;96772.47;5029434;28;20538;-67
2021/07/01 01:57:50;;;;;;;3.63;1.88;;;;;;;13.07;95.90;96769.75;5048284;28;20068;-65
2021/07/01 02:00:19;;;;;;;12.52;6.25;;;;;;;12.98;96.16;96772.00;5017265;28;20045;-64
2021/07/01 02:02:45;;;;;;;5.72;2.00;;;;;;;12.93;97.65;96770.41;5022312;28;20041;-63
2021/07/01 02:05:11;;;;;;;3.85;2.15;;;;;;;12.86;97.75;96767.59;5033062;28;20049;-64
2021/07/01 02:07:37;;;;;;;3.85;2.10;;;;;;;12.58;98.29;96768.91;5036796;28;20458;-65
2021/07/01 02:10:05;;;;;;;3.67;2.38;;;;;;;12.68;98.71;96767.44;5029094;28;20049;-63
2021/07/01 02:12:31;;;;;;;4.03;2.03;;;;;;;12.67;98.75;96768.59;5032320;28;20123;-66
2021/07/01 02:14:58;;;;;;;4.88;2.22;;;;;;;12.74;98.18;96762.38;5040530;28;20069;-65
2021/07/01 02:17:24;;;;;;;3.60;2.22;;;;;;;12.75;100.00;96766.72;5017134;28;20802;-66
2021/07/01 02:19:49;;;;;;;3.72;2.08;;;;;;;12.79;98.13;96759.28;5040542;28;20048;-68
2021/07/01 02:22:15;;;;;;;3.65;2.25;;;;;;;12.76;98.25;96766.31;5035834;28;20037;-64
2021/07/01 02:24:41;;;;;;;4.05;2.03;;;;;;;12.63;100.00;96763.06;5023346;28;20049;-66
2021/07/01 02:27:08;;;;;;;3.67;2.28;;;;;;;12.53;100.00;96766.53;5016861;28;20446;-66
2021/07/01 02:29:34;;;;;;;6.22;2.90;;;;;;;12.49;100.00;96762.16;5040704;28;20048;-65
2021/07/01 02:31:59;;;;;;;5.63;2.60;;;;;;;12.64;100.00;96763.88;5040161;28;20040;-65
2021/07/01 02:34:25;;;;;;;5.15;2.63;;;;;;;12.64;100.00;96769.38;5035331;28;20040;-64
2021/07/01 02:36:51;;;;;;;3.65;2.25;;;;;;;12.56;100.00;96770.47;5041052;28;20041;-64
2021/07/01 02:39:16;;;;;;;4.53;2.47;;;;;;;12.56;100.00;96771.25;5043415;28;20033;-65
2021/07/01 02:41:42;;;;;;;4.50;2.30;;;;;;;12.59;100.00;96776.00;5047179;28;20077;-64
2021/07/01 02:44:07;;;;;;;6.22;2.28;;;;;;;12.65;100.00;96773.69;5035207;28;20106;-65
2021/07/01 02:46:33;;;;;;;3.28;2.20;;;;;;;12.76;100.00;96771.81;5040628;28;20051;-64
2021/07/01 02:48:58;;;;;;;6.18;2.33;;;;;;;12.73;99.82;96769.03;5040604;28;20072;-63
2021/07/01 02:51:24;;;;;;;5.93;3.10;;;;;;;12.71;99.85;96772.19;5034831;28;20055;-65
2021/07/01 02:53:49;;;;;;;4.55;2.92;;;;;;;12.67;100.00;96768.59;5038744;28;20036;-65
2021/07/01 02:56:15;;;;;;;4.35;2.22;;;;;;;12.72;99.39;96771.00;5035721;28;20045;-65
2021/07/01 02:58:41;;;;;;;3.92;2.42;;;;;;;12.81;97.74;96771.47;5039511;28;20040;-64
2021/07/01 03:01:06;;;;;;;2.97;1.95;;;;;;;12.79;97.70;96764.78;4999644;28;20037;-64
2021/07/01 03:03:31;;;;;;;6.32;2.35;;;;;;;12.77;97.41;96767.91;5036935;28;20133;-64
2021/07/01 03:05:57;;;;;;;3.45;2.10;;;;;;;12.72;98.56;96765.50;5020632;28;20037;-64
2021/07/01 03:08:22;;;;;;;4.97;2.42;;;;;;;12.67;99.00;96762.31;5014605;28;20290;-64
2021/07/01 03:10:48;;;;;;;5.43;3.10;;;;;;;12.64;100.00;96766.63;5021015;28;20386;-65
2021/07/01 03:13:14;;;;;;;4.75;2.83;;;;;;;12.49;100.00;96767.66;5015245;28;20488;-64
2021/07/01 03:15:41;;;;;;;8.30;2.53;;;;;;;12.43;100.00;96764.44;5019754;28;20136;-63
2021/07/01 03:18:07;;;;;;;5.90;2.80;;;;;;;12.30;100.00;96763.13;5014993;28;20136;-64
2021/07/01 03:20:32;;;;;;;5.90;2.85;;;;;;;12.29;100.00;96769.78;5018395;28;20046;-65
2021/07/01 03:22:58;;;;;;;7.15;2.95;;;;;;;12.16;100.00;96770.06;5020243;28;20037;-64
2021/07/01 03:25:24;;;;;;;6.43;2.83;;;;;;;12.36;100.00;96764.38;5015461;28;20399;-63
2021/07/01 03:27:49;;;;;;;7.00;2.67;;;;;;;12.35;100.00;96760.84;5020559;28;20056;-63
2021/07/01 03:30:15;;;;;;;5.20;3.25;;;;;;;12.39;100.00;96758.94;5015224;28;20038;-64
2021/07/01 03:32:41;;;;;;;4.85;2.53;;;;;;;12.40;100.00;96767.94;5021343;28;20371;-65
2021/07/01 03:35:07;;;;;;;4.40;2.70;;;;;;;12.58;100.00;96757.13;5012541;28;20554;-64
2021/07/01 03:37:32;;;;;;;4.90;2.70;;;;;;;12.46;100.00;96765.66;5021634;28;20045;-65
2021/07/01 03:39:58;;;;;;;8.40;3.78;;;;;;;12.47;100.00;96761.75;5029512;28;20048;-64
2021/07/01 03:42:25;;;;;;;5.95;2.78;;;;;;;12.55;100.00;96755.94;5028018;28;20053;-64
2021/07/01 03:44:50;;;;;;;5.18;2.55;;;;;;;12.69;99.15;96759.97;5009479;28;20033;-64
2021/07/01 03:47:16;;;;;;;5.15;2.90;;;;;;;12.75;99.16;96766.72;5018480;28;20068;-64
2021/07/01 03:49:42;;;;;;;5.72;2.88;;;;;;;12.76;98.93;96769.06;5024003;28;20044;-64
2021/07/01 03:52:07;;;;;;;6.35;3.40;;;;;;;12.65;100.00;96761.91;5018219;28;20388;-63
2021/07/01 03:54:33;;;;;;;6.57;3.78;;;;;;;12.50;100.00;96767.28;5023169;28;20056;-65
2021/07/01 03:57:00;;;;;;;7.55;2.70;;;;;;;12.54;100.00;96768.09;5022730;28;20043;-64
2021/07/01 03:59:26;;;;;;;7.00;3.45;;;;;;;12.45;100.00;96770.34;5016343;28;20049;-64
2021/07/01 04:01:52;;;;;;;8.50;3.42;;;;;;;12.46;100.00;96760.16;5023143;28;20092;-63
2021/07/01 04:04:17;;;;;;;9.10;3.40;;;;;;;12.43;100.00;96767.97;5027896;28;20049;-63
2021/07/01 04:06:42;;;;;;;7.40;3.58;;;;;;;12.55;100.00;96764.19;5041448;28;20780;-63
2021/07/01 04:09:08;;;;;;;5.20;3.47;;;;;;;12.57;100.00;96767.34;5038640;28;20081;-65
2021/07/01 04:11:37;;;;;;;7.28;3.95;;;;;;;12.63;100.00;96762.28;5043591;28;20044;-65
2021/07/01 04:14:03;;;;;;;7.07;3.40;;;;;;;12.62;100.00;96767.00;5041884;28;20029;-65
2021/07/01 04:16:30;;;;;;;6.13;3.65;;;;;;;12.63;100.00;96768.56;5041998;28;20037;-66
2021/07/01 04:18:55;;;;;;;8.48;4.13;;;;;;;12.63;100.00;96771.31;5043059;28;20075;-64
2021/07/01 04:21:26;;;;;;;6.03;3.38;;;;;;;12.63;100.00;96779.56;5037662;28;20072;-65
2021/07/01 04:23:51;;;;;;;8.25;4.00;;;;;;;12.59;100.00;96778.75;5041811;28;20135;-65
2021/07/01 04:26:16;;;;;;;5.78;3.22;;;;;;;12.66;100.00;96775.28;5038006;28;20136;-64
2021/07/01 04:28:42;;;;;;;7.63;3.55;;;;;;;12.57;100.00;96778.34;5041210;28;20095;-64
2021/07/01 04:31:09;;;;;;;12.27;5.30;;;;;;;12.54;100.00;96778.28;5019921;28;20086;-66
2021/07/01 04:33:35;;;;;;;6.32;3.72;;;;;;;12.59;100.00;96781.47;5042850;28;20048;-63
2021/07/01 04:36:00;;;;;;;6.78;4.00;;;;;;;12.69;100.00;96777.25;5042720;28;20398;-64
2021/07/01 04:38:26;;;;;;;9.50;5.22;;;;;;;12.68;100.00;96783.16;5037904;28;20470;-64
2021/07/01 04:40:51;;;;;;;7.22;4.50;;;;;;;12.69;100.00;96779.22;5024455;28;20045;-65
2021/07/01 04:43:16;;;;;;;10.70;5.20;;;;;;;12.67;100.00;96771.34;5037544;28;20041;-65
2021/07/01 04:45:42;;;;;;;10.00;5.65;;;;;;;12.79;100.00;96776.56;5043222;28;20371;-64
2021/07/01 04:48:08;;;;;;;6.40;4.25;;;;;;;12.84;100.00;96780.13;5037398;28;20110;-64
2021/07/01 04:50:33;;;;;;;7.97;4.07;;;;;;;12.96;100.00;96780.66;5042022;28;20069;-65
2021/07/01 04:52:59;;;;;;;7.15;3.92;;;;;;;12.98;100.00;96783.00;5042338;28;20037;-64
2021/07/01 04:55:24;;;;;;;7.22;4.00;;;;;;;13.04;100.00;96780.72;5017404;28;20048;-64
2021/07/01 04:57:49;;;;;;;7.50;4.72;;;;;;;13.06;100.00;96781.91;5042240;28;20041;-64
2021/07/01 05:00:15;;;;;;;9.30;3.97;;;;;;;13.15;100.00;96779.59;5036695;28;20036;-64
2021/07/01 05:02:41;;;;;;;5.63;3.13;;;;;;;13.30;99.14;96777.75;5042266;28;20051;-64
2021/07/01 05:05:07;;;;;;;9.85;4.53;;;;;;;13.21;98.46;96782.78;5019844;28;20585;-65
2021/07/01 05:07:32;;;;;;;5.97;3.60;;;;;;;13.26;99.65;96787.16;5021247;28;20048;-69
2021/07/01 05:09:57;;;;;;;5.20;3.28;;;;;;;13.19;99.45;96785.13;5021666;28;20468;-64
2021/07/01 05:12:23;;;;;;;6.28;3.53;;;;;;;13.27;99.28;96784.03;5017167;28;20041;-63
2021/07/01 05:14:48;;;;;;;6.13;3.97;;;;;;;13.43;97.36;96783.75;5022500;28;20409;-64
2021/07/01 05:17:13;;;;;;;6.50;3.78;;;;;;;13.45;98.27;96786.13;5017209;28;20041;-64
2021/07/01 05:19:39;;;;;;;6.45;3.22;;;;;;;13.30;97.50;96794.25;5025500;28;20113;-65
2021/07/01 05:22:05;;;;;;;6.50;3.50;;;;;;;13.29;97.71;96791.88;5024878;28;20037;-63
2021/07/01 05:24:30;;;;;;;9.07;4.32;;;;;;;13.25;98.80;96794.59;5025911;28;20052;-63
2021/07/01 05:26:56;;;;;;;6.75;3.85;;;;;;;13.35;99.47;96795.88;5024349;28;20494;-64
2021/07/01 05:29:21;;;;;;;7.25;3.92;;;;;;;13.22;98.60;96795.38;5015916;28;20484;-64
2021/07/01 05:31:47;;;;;;;7.75;4.30;;;;;;;13.32;98.69;96797.44;5003644;28;20041;-65
2021/07/01 05:34:12;;;;;;;5.70;3.22;;;;;;;13.52;94.29;96792.47;5016090;28;20132;-63
2021/07/01 05:36:38;;;;;;;8.23;3.67;;;;;;;13.39;96.04;96791.19;5022248;28;20049;-65
2021/07/01 05:39:06;;;;;;;5.85;3.40;;;;;;;13.35;98.16;96782.91;5019610;28;20033;-64
2021/07/01 05:41:32;;;;;;;6.18;3.03;;;;;;;13.52;95.18;96783.41;5023088;28;20124;-65
2021/07/01 05:44:00;;;;;;;6.43;3.25;;;;;;;13.46;95.41;96782.19;5022538;28;20145;-64
2021/07/01 05:46:26;;;;;;;7.20;3.47;;;;;;;13.54;94.98;96778.31;5015472;28;20052;-65
2021/07/01 05:48:51;;;;;;;5.80;3.33;;;;;;;13.38;97.53;96779.41;5020675;28;20041;-64
2021/07/01 05:51:17;;;;;;;5.30;3.08;;;;;;;13.51;97.73;96779.88;5015833;28;20068;-64
2021/07/01 05:56:08;;;;;;;3.78;2.60;;;;;;;13.44;97.75;96785.34;5001248;28;20590;-64
2021/07/01 05:58:33;;;;;;;6.25;2.95;;;;;;;13.36;96.90;96787.25;5034789;28;20049;-63
2021/07/01 06:00:59;;;;;;;5.30;2.85;;;;;;;13.42;98.81;96793.19;5024293;28;20080;-66
2021/07/01 06:03:24;;;;;;;7.07;3.17;;;;;;;13.53;99.15;96787.75;5018581;28;20038;-64
2021/07/01 06:06:02;;;;;;;6.32;2.90;;;;;;;13.49;98.32;96795.19;5040980;28;20075;-63
2021/07/01 06:08:31;;;;;;;5.50;2.72;;;;;;;13.69;97.28;96792.97;5035341;28;20040;-65
2021/07/01 06:11:01;;;;;;;4.50;2.70;;;;;;;13.75;97.20;96800.44;5041229;28;20663;-65
2021/07/01 06:13:28;;;;;;;4.82;3.30;;;;;;;13.77;97.81;96797.31;5034817;28;20041;-65
2021/07/01 06:15:54;;;;;;;6.38;3.30;;;;;;;13.68;97.36;96794.91;5040857;28;20068;-62
2021/07/01 06:18:21;;;;;;;6.03;2.85;;;;;;;13.75;96.43;96794.16;5035587;28;20037;-64
2021/07/01 06:20:47;;;;;;;5.78;3.80;;;;;;;14.03;95.03;96798.25;5047389;28;20489;-65
2021/07/01 06:23:14;;;;;;;5.88;3.63;;;;;;;14.18;91.59;96796.31;5049204;28;20091;-64
2021/07/01 06:25:40;;;;;;;5.75;2.80;;;;;;;14.19;92.55;96795.94;5054199;28;20037;-65
2021/07/01 06:28:05;;;;;;;5.15;3.00;;;;;;;14.19;94.64;96800.66;5020807;28;20103;-64
2021/07/01 06:30:31;;;;;;;5.15;3.10;;;;;;;14.21;95.62;96792.81;5039960;28;20672;-63
2021/07/01 06:32:57;;;;;;;5.05;2.92;;;;;;;14.13;95.97;96806.56;5041306;28;20469;-64
2021/07/01 06:35:25;;;;;;;6.10;3.80;;;;;;;14.32;96.68;96807.41;5035474;28;20072;-64
2021/07/01 06:37:56;;;;;;;4.82;3.17;;;;;;;14.46;92.89;96801.94;5040895;28;20819;-64
2021/07/01 06:40:22;;;;;;;5.13;2.85;;;;;;;14.68;91.31;96797.28;5037342;28;20513;-63
2021/07/01 06:42:53;;;;;;;5.15;3.10;;;;;;;14.62;94.60;96801.59;5040807;28;20041;-64
2021/07/01 06:45:19;;;;;;;4.40;2.85;;;;;;;14.75;92.59;96793.75;5035469;28;20041;-64
2021/07/01 06:47:50;;;;;;;6.22;3.63;;;;;;;14.95;92.79;96787.88;5040324;28;20044;-64
2021/07/01 06:50:17;;;;;;;5.65;2.67;;;;;;;15.02;91.92;96796.16;5036134;28;20041;-64
2021/07/01 06:52:44;;;;;;;5.88;2.80;;;;;;;14.89;91.69;96796.53;5040306;28;20037;-63
2021/07/01 06:55:14;;;;;;;6.53;2.85;;;;;;;14.97;90.65;96796.53;5034288;28;20037;-63
2021/07/01 06:57:40;;;;;;;5.03;2.65;;;;;;;14.99;89.48;96800.47;5022188;28;20505;-64
2021/07/01 07:00:08;;;;;;;4.38;2.65;;;;;;;15.14;90.07;96801.25;5034732;28;20409;-65
2021/07/01 07:02:34;;;;;;;5.88;3.00;;;;;;;15.31;90.04;96805.19;5049725;28;20045;-64
2021/07/01 07:05:08;;;;;;;4.68;2.35;;;;;;;15.41;90.34;96809.13;5026525;28;20053;-64
2021/07/01 07:07:34;;;;;;;4.57;2.20;;;;;;;15.55;87.60;96809.09;5019950;28;20045;-64
2021/07/01 07:10:04;;;;;;;6.20;2.40;;;;;;;15.32;90.00;96809.50;5019207;28;20486;-64
2021/07/01 07:12:32;;;;;;;4.78;2.60;;;;;;;15.38;88.50;96807.94;5018795;28;20517;-64
2021/07/01 07:14:59;;;;;;;4.10;2.25;;;;;;;15.36;89.14;96802.03;5020667;28;20042;-64
2021/07/01 07:17:29;;;;;;;3.85;2.05;;;;;;;15.33;88.59;96804.81;5013628;28;20041;-63
2021/07/01 07:19:58;;;;;;;;;;;;;;;15.35;91.65;96811.50;5023324;28;20033;-65
2021/07/01 07:22:28;;;;;;;5.40;2.00;;;;;;;15.61;86.77;96803.97;5018627;28;20666;-63
2021/07/01 07:24:59;;;;;;;6.75;2.45;;;;;;;15.20;90.89;96802.44;5025028;28;20115;-63
2021/07/01 07:27:29;;;;;;;5.60;1.67;;;;;;;15.20;91.54;96805.19;5018919;28;20430;-62
2021/07/01 07:29:55;;;;;;;4.75;1.85;;;;;;;14.90;91.53;96798.09;5023544;28;20041;-62
2021/07/01 07:32:23;;;;;;;2.90;1.55;;;;;;;14.99;91.73;96810.72;5017795;28;20041;-61
2021/07/01 07:34:50;;;;;;;6.68;1.92;;;;;;;15.21;90.95;96806.75;5024334;28;20090;-63
2021/07/01 07:37:16;;;;;;;3.72;1.65;;;;;;;15.43;88.80;96810.31;5018961;28;20067;-63
2021/07/01 07:39:43;;;;;;;4.80;1.67;;;;;;;15.37;88.57;96809.13;5024311;28;20034;-62
2021/07/01 07:42:08;;;;;;;3.45;1.88;;;;;;;15.34;89.55;96803.59;5001921;28;20045;-63
2021/07/01 07:44:39;;;;;;;3.33;1.63;;;;;;;15.45;89.01;96801.66;5025195;28;20521;-64
2021/07/01 07:47:08;;;;;;;2.70;1.52;;;;;;;15.51;87.94;96799.28;5003449;28;20041;-62
2021/07/01 07:49:34;;;;;;;4.90;2.05;;;;;;;15.53;89.15;96796.91;5026012;28;20044;-62
2021/07/01 07:52:05;;;;;;;2.92;1.40;;;;;;;15.34;87.12;96798.09;5026018;28;20045;-62
2021/07/01 07:54:37;;;;;;;4.50;1.73;;;;;;;15.23;89.12;96800.84;5005717;28;20033;-63
2021/07/01 07:57:04;;;;;;;3.53;1.73;;;;;;;15.27;90.09;96804.41;5024541;28;20069;-63
2021/07/01 07:59:31;;;;;;;2.38;1.40;;;;;;;15.35;88.86;96800.47;5042407;28;20506;-61
2021/07/01 08:02:00;;;;;;;3.30;1.60;;;;;;;15.39;88.40;96800.44;5026499;28;20072;-63
2021/07/01 08:04:29;;;;;;;3.58;1.95;;;;;;;15.16;88.46;96795.34;5028080;28;20045;-63
2021/07/01 08:06:55;;;;;;;5.40;1.77;;;;;;;15.08;89.55;96797.31;5009435;28;20133;-64
2021/07/01 08:09:28;;;;;;;4.25;2.05;;;;;;;15.31;88.95;96796.91;5027907;28;20052;-64
2021/07/01 08:11:55;;;;;;;4.45;1.65;;;;;;;15.38;89.79;96799.66;5031438;28;20045;-61
2021/07/01 08:14:23;;;;;;;3.97;1.80;;;;;;;15.73;88.27;96797.25;5031179;28;20052;-63
2021/07/01 08:16:49;;;;;;;5.50;1.40;;;;;;;15.95;85.71;96793.25;5028300;28;20052;-64
2021/07/01 08:19:15;;;;;;;2.88;1.48;;;;;;;15.69;86.68;96791.72;5019066;28;20429;-60
2021/07/01 08:21:41;;;;;;;2.33;1.60;;;;;;;15.43;87.26;96792.94;5024890;28;20041;-62
2021/07/01 08:24:08;;;;;;;3.45;1.92;;;;;;;15.20;90.85;96796.16;5019075;28;20379;-64
2021/07/01 08:26:34;;;;;;;6.40;2.80;;;;;;;15.30;89.83;96798.09;5022924;28;20113;-61
2021/07/01 08:29:00;;;;;;;7.40;2.50;;;;;;;15.29;90.32;96794.56;5023206;28;20068;-62
2021/07/01 08:31:28;;;;;;;2.00;1.33;;;;;;;15.29;91.35;96797.31;5014576;28;20734;-62
2021/07/01 08:33:55;;;;;;;3.35;1.83;;;;;;;15.16;90.45;96800.84;5023009;28;20034;-63
2021/07/01 08:36:22;;;;;;;2.95;1.55;;;;;;;15.38;89.88;96798.91;5017489;28;20386;-64
2021/07/01 08:38:54;;;;;;;3.28;1.83;;;;;;;15.36;89.18;96802.03;5022787;28;20490;-64
2021/07/01 08:41:20;;;;;;;3.28;1.90;;;;;;;14.99;90.49;96797.69;5017998;28;20155;-62
2021/07/01 08:43:52;;;;;;;8.38;1.85;;;;;;;15.15;90.69;96796.53;5020727;28;20052;-64
2021/07/01 08:46:28;;;;;;;4.82;1.52;;;;;;;15.32;90.20;96803.22;5015206;28;20405;-62
2021/07/01 08:49:01;;;;;;;4.40;1.50;;;;;;;15.53;88.22;96799.66;5022488;28;20187;-62
2021/07/01 08:51:44;;;;;;;4.70;1.42;;;;;;;15.96;85.44;96794.84;5017381;28;20359;-62
2021/07/01 08:54:13;;;;;;;2.25;1.48;;;;;;;15.94;85.29;96805.50;5017172;28;20033;-63
2021/07/01 08:56:39;;;;;;;16.23;3.45;;;;;;;16.49;83.21;96800.53;5022728;28;20041;-62
2021/07/01 08:59:07;;;;;;;3.00;1.35;;;;;;;16.44;84.00;96794.25;5016872;28;20048;-63
2021/07/01 09:01:35;;;;;;;2.95;1.25;;;;;;;16.96;80.16;96788.03;5022310;28;20033;-62
2021/07/01 09:04:03;;;;;;;2.72;1.33;;;;;;;17.19;78.06;96795.72;5030143;28;20041;-63
2021/07/01 09:06:34;;;;;;;3.42;1.40;;;;;;;17.94;77.69;96787.94;5038326;28;20057;-62
2021/07/01 09:09:03;;;;;;;2.08;1.10;;;;;;;18.24;76.23;96792.72;5042438;28;20047;-62
2021/07/01 09:11:35;;;;;;;4.63;2.10;;;;;;;18.71;71.63;96787.34;5034744;28;20045;-62
2021/07/01 09:14:04;;;;;;;3.05;1.00;;;;;;;19.26;69.93;96782.53;5022321;28;20490;-62
2021/07/01 09:16:31;;;;;;;2.75;1.65;;;;;;;18.95;71.00;96781.84;5000298;28;20069;-63
2021/07/01 09:18:59;;;;;;;6.68;2.92;;;;;;;19.00;68.58;96786.16;5020905;28;20063;-62
2021/07/01 09:21:25;;;;;;;4.68;1.88;;;;;;;18.95;67.70;96779.09;5016462;28;20490;-61
2021/07/01 09:23:52;;;;;;;5.38;1.67;;;;;;;18.85;71.67;96777.25;5021743;28;20044;-62
2021/07/01 09:26:23;;;;;;;6.25;1.63;;;;;;;19.31;67.76;96777.72;5016923;28;20053;-62
2021/07/01 09:28:50;;;;;;;7.82;1.80;;;;;;;19.08;68.96;96782.81;5004788;28;20433;-64
2021/07/01 09:31:19;;;;;;;7.65;1.70;;;;;;;19.01;67.05;96782.94;5015679;28;20402;-63
2021/07/01 09:33:47;;;;;;;2.30;1.40;;;;;;;18.60;70.75;96794.22;5031306;28;20396;-64
2021/07/01 09:36:13;;;;;;;4.28;1.80;;;;;;;19.14;68.11;96799.00;5022819;28;20491;-64
2021/07/01 09:38:43;;;;;;;4.25;1.50;;;;;;;18.95;68.20;96795.72;5021554;28;20045;-63
2021/07/01 09:41:10;;;;;;;6.60;1.75;;;;;;;19.39;67.55;96798.59;5014801;28;20047;-64
2021/07/01 09:43:38;;;;;;;3.33;1.50;;;;;;;19.17;67.66;96796.19;5018916;28;20045;-63
2021/07/01 09:46:12;;;;;;;3.00;1.67;;;;;;;19.06;69.41;96790.78;5017647;28;20052;-62
2021/07/01 09:48:45;;;;;;;4.72;1.63;;;;;;;18.86;69.72;96796.25;5021810;28;20540;-63
2021/07/01 09:51:11;;;;;;;2.70;1.40;;;;;;;19.03;67.42;96801.94;5015489;28;20052;-61
2021/07/01 09:53:37;;;;;;;3.28;1.73;;;;;;;18.77;69.78;96795.19;5021266;28;20037;-64
2021/07/01 09:56:05;;;;;;;5.28;1.85;;;;;;;18.89;66.77;96803.75;5018100;28;20434;-63
2021/07/01 09:58:36;;;;;;;7.18;1.92;;;;;;;18.78;69.64;96791.19;5021613;28;20042;-62
2021/07/01 10:01:01;;;;;;;3.38;1.88;;;;;;;18.85;69.73;96796.66;5020269;28;20099;-65
2021/07/01 10:03:27;;;;;;;4.38;1.90;;;;;;;19.14;67.87;96791.50;5019708;28;20415;-62
2021/07/01 10:05:52;;;;;;;3.22;2.20;;;;;;;19.20;65.98;96786.22;5041021;28;20045;-62
2021/07/01 10:08:18;;;;;;;3.42;1.70;;;;;;;18.96;67.47;96793.72;5037010;28;20091;-63
2021/07/01 10:10:48;;;;;;;4.30;1.80;;;;;;;19.25;67.10;96799.63;5041116;28;20131;-63
2021/07/01 10:13:14;;;;;;;3.80;1.98;;;;;;;19.15;67.27;96790.25;5036206;28;20045;-62
2021/07/01 10:15:42;;;;;;;4.65;2.00;;;;;;;19.28;65.82;96791.25;5041676;28;20047;-62
2021/07/01 10:18:15;;;;;;;7.10;2.05;;;;;;;19.02;66.35;96784.53;5035063;28;20076;-64
2021/07/01 10:20:45;;;;;;;3.55;2.20;;;;;;;19.11;65.87;96786.75;5039618;28;20503;-63
2021/07/01 10:23:33;;;;;;;3.83;2.40;;;;;;;19.33;64.39;96783.63;5035813;28;20048;-63
2021/07/01 10:26:15;;;;;;;4.07;2.42;;;;;;;19.49;63.94;96764.31;5040798;28;20148;-63
2021/07/01 10:28:41;;;;;;;4.18;2.15;;;;;;;19.67;63.39;96777.88;5038005;28;20037;-62
2021/07/01 10:31:10;;;;;;;3.70;2.03;;;;;;;20.40;60.82;96767.72;5035161;28;20043;-63
2021/07/01 10:33:38;;;;;;;5.00;2.35;;;;;;;20.04;62.21;96779.56;5041536;28;20044;-64
2021/07/01 10:36:13;;;;;;;4.97;2.25;;;;;;;19.90;62.03;96779.06;5037008;28;20045;-63
2021/07/01 10:38:47;;;;;;;5.40;1.98;;;;;;;19.94;59.88;96780.56;5041102;28;20127;-62
2021/07/01 10:41:38;;;;;;;2.75;2.00;;;;;;;20.02;61.56;96770.06;5035168;28;20043;-62
2021/07/01 10:44:05;;;;;;;3.25;2.13;;;;;;;20.11;61.56;96761.16;5037383;28;20140;-61
2021/07/01 10:46:42;;;;;;;4.20;2.00;;;;;;;19.42;62.47;96770.75;5039875;28;20037;-62
2021/07/01 10:49:08;;;;;;;3.50;2.22;;;;;;;19.52;62.44;96768.22;5036249;28;20375;-63
2021/07/01 10:51:35;;;;;;;4.47;2.60;;;;;;;19.54;62.55;96761.03;5040362;28;20099;-63
2021/07/01 10:54:11;;;;;;;5.05;2.78;;;;;;;19.81;61.58;96762.97;5050726;28;20037;-64
2021/07/01 10:56:42;;;;;;;3.75;2.03;;;;;;;20.08;60.98;96759.25;5057993;28;20037;-63
2021/07/01 10:59:10;;;;;;;4.15;2.03;;;;;;;19.93;61.42;96761.53;5041043;28;20048;-63
2021/07/01 11:01:37;;;;;;;3.63;2.15;;;;;;;19.62;62.58;96765.25;5046868;28;20037;-61
2021/07/01 11:04:16;;;;;;;6.68;3.17;;;;;;;19.66;62.16;96770.72;5036754;28;20482;-64
2021/07/01 11:07:00;;;;;;;2.67;1.90;;;;;;;19.32;61.20;96759.84;5025887;28;20151;-61
2021/07/01 11:09:40;;;;;;;2.70;1.80;;;;;;;19.63;61.01;96764.03;5018307;28;20088;-63
2021/07/01 11:12:07;;;;;;;3.75;1.70;;;;;;;19.21;61.87;96771.13;5020121;28;20037;-63
2021/07/01 11:14:46;;;;;;;4.10;2.60;;;;;;;18.89;63.94;96766.91;5026775;28;20410;-64
2021/07/01 11:17:12;;;;;;;3.55;1.95;;;;;;;18.93;63.97;96766.84;5036239;28;20037;-63
2021/07/01 11:19:42;;;;;;;3.42;2.10;;;;;;;18.75;63.39;96767.88;5028558;28;20045;-63
2021/07/01 11:22:09;;;;;;;4.15;2.33;;;;;;;18.94;63.65;96765.63;5019524;28;20045;-64
2021/07/01 11:24:45;;;;;;;3.10;2.20;;;;;;;19.29;62.60;96767.81;5024887;28;20406;-63
2021/07/01 11:27:11;;;;;;;4.30;2.17;;;;;;;19.41;61.67;96768.41;5019133;28;20033;-62
2021/07/01 11:29:40;;;;;;;5.82;2.63;;;;;;;19.73;60.89;96765.06;5024110;28;20042;-62
2021/07/01 11:32:19;;;;;;;3.58;2.40;;;;;;;19.72;59.43;96755.16;5019216;28;20080;-62
2021/07/01 11:34:47;;;;;;;7.95;5.05;;;;;;;19.97;58.81;96759.47;5023251;28;20037;-63